Data for 03/26/2007

Time Sea-Level Adjusted Pressure Absolute Pressure Temperature Relative Humidity Dew Point   
(mb) (inHg) (mb) (inHg) (C) (F) (%) (C) (F)
00:05 1017 30.03 846 24.98 4.1 39.4 85 1.9 35.4
00:10 1017 30.03 846 24.98 4.2 39.5 83 1.6 34.9
00:15 1017 30.03 846 24.98 4.3 39.7 84 1.8 35.3
00:20 1017 30.03 846 24.98 4.2 39.5 84 1.8 35.2
00:25 1017 30.03 846 24.98 4.2 39.5 85 1.8 35.3
00:30 1017 30.03 846 24.98 4.1 39.4 85 1.8 35.2
00:35 1017 30.03 846 24.98 4.1 39.4 85 1.8 35.2
00:40 1017 30.03 846 24.98 4.1 39.4 85 1.8 35.2
00:45 1017 30.03 846 24.98 4.1 39.4 86 1.9 35.4
00:50 1017 30.03 846 24.98 4.2 39.6 84 1.8 35.3
00:55 1017 30.03 847 25.01 4.4 39.9 85 2 35.6
01:00 1017 30.03 847 25.01 4.4 40 85 2.1 35.8
01:05 1017 30.03 847 25.01 4.3 39.7 85 1.9 35.4
01:10 1018 30.06 847 25.01 4.1 39.4 85 1.8 35.3
01:15 1018 30.06 847 25.01 3.8 38.9 86 1.7 35.1
01:20 1018 30.06 847 25.01 3.7 38.6 86 1.6 34.8
01:25 1018 30.06 847 25.01 3.7 38.6 85 1.4 34.6
01:30 1018 30.06 847 25.01 3.8 38.9 86 1.7 35
01:35 1018 30.06 847 25.01 4 39.3 85 1.8 35.2
01:40 1018 30.06 847 25.01 4.2 39.6 85 1.9 35.4
01:45 1018 30.06 847 25.01 4.4 39.9 84 2 35.6
01:50 1018 30.06 847 25.01 4.3 39.8 84 1.9 35.4
01:55 1018 30.06 847 25.01 4.3 39.7 86 2.2 35.9
02:00 1018 30.06 847 25.01 4.1 39.5 86 2.1 35.7
02:05 1018 30.06 847 25.01 4.1 39.3 87 2 35.7
02:10 1018 30.06 847 25.01 4.3 39.7 86 2.2 35.9
02:15 1018 30.06 847 25.01 4.4 39.9 87 2.3 36.2
02:20 1018 30.06 847 25.01 4.3 39.8 87 2.3 36.2
02:25 1018 30.06 847 25.01 4.3 39.8 87 2.3 36.2
02:30 1018 30.06 847 25.01 4.3 39.7 87 2.4 36.3
02:35 1018 30.06 847 25.01 4.3 39.8 87 2.4 36.3
02:40 1018 30.06 847 25.01 4.3 39.8 88 2.4 36.4
02:45 1018 30.06 847 25.01 4.4 39.9 86 2.3 36.1
02:50 1018 30.06 847 25.01 4.3 39.7 87 2.3 36.1
02:55 1018 30.06 847 25.01 4.2 39.6 86 2.1 35.8
03:00 1018 30.06 848 25.04 4.2 39.5 86 2 35.7
03:05 1018 30.06 848 25.04 4 39.3 88 2.2 36
03:10 1018 30.06 848 25.04 3.5 38.3 92 2.2 36
03:15 1018 30.06 847 25.01 3.2 37.8 93 2.2 35.9
03:20 1018 30.06 848 25.04 3.2 37.7 93 2.1 35.8
03:25 1018 30.06 848 25.04 3.1 37.6 92 2 35.6
03:30 1018 30.06 848 25.04 3.1 37.6 92 1.9 35.5
03:35 1018 30.06 848 25.04 3.2 37.8 91 1.9 35.5
03:40 1018 30.06 848 25.04 3.4 38.1 89 1.8 35.2
03:45 1018 30.06 848 25.04 3.6 38.4 87 1.6 34.9
03:50 1018 30.06 848 25.04 3.5 38.4 86 1.5 34.6
03:55 1018 30.06 848 25.04 3.6 38.4 86 1.4 34.5
04:00 1018 30.06 848 25.04 3.6 38.4 82 0.8 33.5
04:05 1018 30.06 848 25.04 3.7 38.6 81 0.6 33.1
04:10 1018 30.06 848 25.04 3.7 38.7 78 0.3 32.5
04:15 1018 30.06 848 25.04 3.8 38.8 76 -0.1 31.8
04:20 1018 30.06 848 25.04 3.8 38.8 75 -0.2 31.6
04:25 1019 30.09 848 25.04 3.8 38.9 75 -0.2 31.6
04:30 1019 30.09 848 25.04 3.8 38.8 74 -0.4 31.2
04:35 1019 30.09 848 25.04 3.6 38.6 74 -0.5 31
04:40 1019 30.09 848 25.04 3.5 38.4 74 -0.7 30.7
04:45 1019 30.09 848 25.04 3.5 38.4 73 -0.8 30.5
04:50 1019 30.09 848 25.04 3.5 38.2 73 -0.9 30.5
04:55 1019 30.09 848 25.04 3.5 38.3 72 -1.1 30
05:00 1019 30.09 848 25.04 3.5 38.2 72 -1.1 30
05:05 1019 30.09 848 25.04 3.4 38.1 72 -1.2 29.8
05:10 1019 30.09 848 25.04 3.4 38.1 72 -1.1 29.9
05:15 1019 30.09 848 25.04 3.4 38.2 71 -1.4 29.5
05:20 1019 30.09 848 25.04 3.5 38.2 72 -1.1 30
05:25 1019 30.09 848 25.04 3.1 37.5 77 -0.6 31
05:30 1019 30.09 848 25.04 2.6 36.6 78 -0.9 30.4
05:35 1019 30.09 848 25.04 2.3 36.2 79 -0.9 30.4
05:40 1019 30.09 848 25.04 2.4 36.3 77 -1.2 29.8
05:45 1019 30.09 848 25.04 2.4 36.4 75 -1.5 29.3
05:50 1019 30.09 848 25.04 2.7 36.9 73 -1.6 29.2
05:55 1019 30.09 848 25.04 3 37.5 73 -1.4 29.5
06:00 1019 30.09 848 25.04 3.1 37.5 72 -1.5 29.4
06:05 1019 30.09 848 25.04 3.1 37.6 70 -1.9 28.6
06:10 1019 30.09 848 25.04 3.1 37.7 70 -1.8 28.8
06:15 1019 30.09 849 25.07 3.1 37.6 69 -2.1 28.2
06:20 1019 30.09 849 25.07 3 37.4 68 -2.2 28
06:25 1019 30.09 849 25.07 3 37.5 68 -2.4 27.7
06:30 1020 30.12 849 25.07 3 37.3 68 -2.3 27.9
06:35 1020 30.12 849 25.07 2.9 37.3 69 -2.2 28
06:40 1020 30.12 849 25.07 2.9 37.2 69 -2.2 28.1
06:45 1020 30.12 849 25.07 2.9 37.2 71 -1.9 28.6
06:50 1020 30.12 849 25.07 2.7 36.8 71 -2 28.3
06:55 1020 30.12 849 25.07 2.5 36.6 71 -2.2 28
07:00 1020 30.12 849 25.07 2.5 36.4 74 -1.7 28.9
07:05 1020 30.12 849 25.07 2.2 35.9 74 -2 28.5
07:10 1020 30.12 849 25.07 1.9 35.5 75 -2.1 28.2
07:15 1020 30.12 849 25.07 2 35.7 73 -2.4 27.7
07:20 1020 30.12 849 25.07 2.2 35.9 73 -2.3 27.9
07:25 1020 30.12 849 25.07 2.2 36 73 -2.1 28.2
07:30 1020 30.12 849 25.07 2.1 35.8 75 -1.9 28.6
07:35 1020 30.12 849 25.07 1.9 35.5 76 -1.9 28.6
07:40 1020 30.12 849 25.07 2 35.6 77 -1.6 29.1
07:45 1020 30.12 849 25.07 1.7 35 81 -1.3 29.6
07:50 1020 30.12 849 25.07 1.4 34.6 81 -1.5 29.3
07:55 1020 30.12 849 25.07 1.5 34.8 78 -1.9 28.6
08:00 1020 30.12 849 25.07 2.2 35.9 74 -2 28.5
08:05 1020 30.12 849 25.07 2.9 37.2 69 -2.2 28.1
08:10 1020 30.12 849 25.07 3.3 37.9 66 -2.4 27.6
08:15 1020 30.12 849 25.07 3.3 37.9 68 -2.1 28.2
08:20 1020 30.12 849 25.07 3.2 37.8 70 -1.7 29
08:25 1020 30.12 849 25.07 2.9 37.2 69 -2.2 28.1
08:30 1020 30.12 849 25.07 2.9 37.2 69 -2.3 27.8
08:35 1020 30.12 849 25.07 2.9 37.2 67 -2.6 27.4
08:40 1020 30.12 849 25.07 3.3 37.9 61 -3.4 25.8
08:45 1019 30.09 849 25.07 3.6 38.5 60 -3.5 25.8
08:50 1019 30.09 849 25.07 3.9 39.1 59 -3.5 25.7
08:55 1019 30.09 849 25.07 4.4 39.9 56 -3.7 25.4
09:00 1019 30.09 849 25.07 3.8 38.9 57 -3.9 25
09:05 1019 30.09 849 25.07 3.9 39.1 57 -3.9 25
09:10 1019 30.09 849 25.07 3.8 38.9 59 -3.5 25.6
09:15 1020 30.12 849 25.07 4.2 39.6 56 -3.7 25.4
09:20 1019 30.09 849 25.07 4.7 40.5 54 -3.7 25.3
09:25 1019 30.09 849 25.07 5.2 41.4 53 -3.7 25.4
09:30 1019 30.09 849 25.07 5.3 41.5 51 -3.9 25
09:35 1019 30.09 849 25.07 4.8 40.6 54 -3.9 25
09:40 1019 30.09 849 25.07 5.2 41.3 53 -3.5 25.7
09:45 1019 30.09 849 25.07 5.1 41.3 52 -3.8 25.2
09:50 1019 30.09 849 25.07 5.5 41.8 52 -3.7 25.4
09:55 1019 30.09 849 25.07 5.8 42.4 50 -3.7 25.3
10:00 1019 30.09 849 25.07 6 42.7 50 -3.7 25.4
10:05 1019 30.09 849 25.07 6.1 43 50 -3.5 25.7
10:10 1019 30.09 849 25.07 6.5 43.7 47 -4.1 24.7
10:15 1019 30.09 849 25.07 6.7 44 45 -4.3 24.2
10:20 1019 30.09 849 25.07 7 44.6 45 -4.3 24.3
10:25 1019 30.09 848 25.04 6.6 44 45 -4.3 24.3
10:30 1019 30.09 848 25.04 5.7 42.3 48 -4.4 24.1
10:35 1019 30.09 848 25.04 6.3 43.3 46 -4.5 23.9
10:40 1019 30.09 848 25.04 7.2 45 43 -4.4 24
10:45 1019 30.09 848 25.04 7.2 44.9 45 -3.8 25.1
10:50 1019 30.09 848 25.04 6.9 44.5 44 -4.4 24.1
10:55 1019 30.09 848 25.04 7.2 45 44 -4.2 24.5
11:00 1019 30.09 848 25.04 7.4 45.4 43 -4.3 24.2
11:05 1019 30.09 848 25.04 8 46.4 40 -4.7 23.5
11:10 1019 30.09 848 25.04 8.1 46.5 39 -5 23.1
11:15 1019 30.09 848 25.04 6.7 44 43 -5.2 22.7
11:20 1019 30.09 848 25.04 6.2 43.2 44 -5.1 22.8
11:25 1019 30.09 848 25.04 7.6 45.6 40 -5 22.9
11:30 1019 30.09 848 25.04 8.5 47.2 40 -4.3 24.2
11:35 1019 30.09 848 25.04 9 48.2 39 -4 24.7
11:40 1019 30.09 848 25.04 8.2 46.7 41 -4.2 24.5
11:45 1018 30.06 848 25.04 8 46.4 41 -4.3 24.2
11:50 1018 30.06 847 25.01 7.1 44.7 45 -4 24.8
11:55 1018 30.06 847 25.01 7.2 44.9 45 -4 24.7
12:00 1018 30.06 847 25.01 7.3 45.2 44 -4 24.8
12:05 1018 30.06 847 25.01 8.9 47.9 39 -4.2 24.5
12:10 1018 30.06 847 25.01 9.6 49.2 39 -3.6 25.6
12:15 1018 30.06 847 25.01 8.7 47.7 43 -3.2 26.2
12:20 1017 30.03 847 25.01 8.9 48.1 41 -3.7 25.4
12:25 1017 30.03 846 24.98 9.9 49.9 39 -3.3 26
12:30 1017 30.03 846 24.98 9.3 48.7 41 -3.2 26.2
12:35 1017 30.03 846 24.98 10.5 50.8 40 -2.6 27.4
12:40 1017 30.03 846 24.98 10.9 51.6 38 -2.8 26.9
12:45 1017 30.03 846 24.98 10.9 51.7 38 -2.8 27
12:50 1017 30.03 846 24.98 11.5 52.6 37 -2.6 27.3
12:55 1017 30.03 846 24.98 11.1 52 38 -2.5 27.5
13:00 1017 30.03 846 24.98 11.3 52.3 38 -2.5 27.6
13:05 1017 30.03 846 24.98 11.8 53.2 40 -1.5 29.4
13:10 1017 30.03 846 24.98 11.9 53.3 38 -2.1 28.2
13:15 1017 30.03 846 24.98 11.5 52.7 39 -1.9 28.6
13:20 1017 30.03 846 24.98 10.6 51.1 43 -1.5 29.3
13:25 1016 30 846 24.98 10.9 51.5 41 -1.8 28.7
13:30 1016 30 846 24.98 11.4 52.5 40 -1.7 28.9
13:35 1016 30 845 24.95 12 53.6 37 -2 28.3
13:40 1016 30 845 24.95 12.4 54.4 38 -1.4 29.5
13:45 1016 30 845 24.95 12.3 54.2 37 -1.9 28.7
13:50 1016 30 845 24.95 12.4 54.3 38 -1.5 29.3
13:55 1016 30 845 24.95 12.6 54.6 37 -1.5 29.3
14:00 1016 30 845 24.95 12.4 54.3 37 -1.8 28.8
14:05 1016 30 845 24.95 12.9 55.2 37 -1.2 29.8
14:10 1016 30 845 24.95 12 53.5 39 -1.4 29.5
14:15 1016 30 845 24.95 11.5 52.6 41 -1.1 29.9
14:20 1016 30 845 24.95 12 53.5 39 -1.6 29.1
14:25 1016 30 845 24.95 12.7 54.8 37 -1.7 28.9
14:30 1016 30 845 24.95 12.9 55.3 36 -1.8 28.7
14:35 1016 30 845 24.95 13.3 56 34 -2.1 28.2
14:40 1016 30 845 24.95 13.3 55.9 37 -1.1 30.1
14:45 1016 30 845 24.95 11.7 53 38 -2.1 28.2
14:50 1016 30 845 24.95 12.1 53.8 38 -1.7 29
14:55 1015 29.97 845 24.95 11.6 52.8 39 -2 28.5
15:00 1015 29.97 845 24.95 12 53.5 37 -2.1 28.3
15:05 1015 29.97 845 24.95 12.9 55.2 34 -2.6 27.3
15:10 1015 29.97 845 24.95 13.5 56.2 33 -2.3 27.8
15:15 1015 29.97 845 24.95 13.3 55.9 35 -1.9 28.5
15:20 1015 29.97 844 24.92 12.3 54.1 35 -2.6 27.3
15:25 1015 29.97 844 24.92 13 55.4 35 -2 28.4
15:30 1015 29.97 844 24.92 12.3 54.1 36 -2.5 27.5
15:35 1015 29.97 844 24.92 12.9 55.3 35 -2.2 28
15:40 1015 29.97 844 24.92 12.9 55.1 35 -2.3 27.8
15:45 1015 29.97 844 24.92 13 55.4 33 -3 26.5
15:50 1015 29.97 844 24.92 12.8 55.1 34 -2.7 27.1
15:55 1014 29.94 844 24.92 13.8 56.9 32 -2.7 27.2
16:00 1014 29.94 843 24.89 14.2 57.6 33 -1.6 29.1
16:05 1014 29.94 843 24.89 13.5 56.3 37 -0.8 30.6
16:10 1014 29.94 843 24.89 13 55.3 39 -0.5 31
16:15 1014 29.94 843 24.89 12.6 54.7 40 -0.7 30.8
16:20 1014 29.94 843 24.89 12.4 54.2 41 -0.6 30.9
16:25 1014 29.94 843 24.89 12.4 54.4 41 -0.5 31
16:30 1014 29.94 843 24.89 12.4 54.3 41 -0.3 31.4
16:35 1014 29.94 843 24.89 12.8 55 40 -0.4 31.2
16:40 1014 29.94 843 24.89 12.8 55.1 39 -0.5 31
16:45 1013 29.91 843 24.89 12.7 54.9 39 -0.7 30.7
16:50 1013 29.91 843 24.89 12.8 55 39 -0.7 30.8
16:55 1013 29.91 842 24.86 12.6 54.7 39 -0.8 30.5
17:00 1013 29.91 842 24.86 12.5 54.6 39 -1.1 30.1
17:05 1013 29.91 842 24.86 12.4 54.2 39 -1.2 29.8
17:10 1013 29.91 842 24.86 12.3 54.2 40 -0.9 30.3
17:15 1013 29.91 842 24.86 12.3 54.2 38 -1.4 29.4
17:20 1013 29.91 842 24.86 12.2 54 38 -1.7 28.9
17:25 1013 29.91 842 24.86 12.2 53.9 38 -1.7 29
17:30 1013 29.91 842 24.86 11.8 53.3 39 -1.7 29
17:35 1013 29.91 842 24.86 11.6 52.9 38 -2.1 28.3
17:40 1013 29.91 842 24.86 11.8 53.2 38 -2.1 28.2
17:45 1013 29.91 842 24.86 11.6 52.9 38 -2.2 28
17:50 1012 29.88 842 24.86 11.5 52.6 39 -2.1 28.2
17:55 1012 29.88 841 24.83 11.4 52.5 38 -2.5 27.5
18:00 1012 29.88 841 24.83 11.5 52.6 38 -2.5 27.6
18:05 1012 29.88 841 24.83 11.4 52.5 38 -2.5 27.4
18:10 1012 29.88 841 24.83 11.3 52.4 38 -2.5 27.4
18:15 1012 29.88 841 24.83 11.3 52.3 37 -2.9 26.9
18:20 1012 29.88 841 24.83 11.3 52.4 37 -2.8 27
18:25 1012 29.88 841 24.83 11.3 52.3 36 -3.1 26.5
18:30 1012 29.88 841 24.83 11 51.9 37 -3 26.7
18:35 1012 29.88 841 24.83 10.9 51.5 38 -3 26.7
18:40 1012 29.88 841 24.83 10.6 51.2 38 -2.9 26.7
18:45 1012 29.88 841 24.83 10.5 50.8 38 -3.1 26.5
18:50 1012 29.88 841 24.83 10.4 50.7 38 -3.2 26.3
18:55 1012 29.88 841 24.83 10.3 50.6 39 -3 26.6
19:00 1012 29.88 841 24.83 10.2 50.3 39 -3 26.7
19:05 1012 29.88 841 24.83 10.1 50.1 39 -3.3 26.1
19:10 1012 29.88 841 24.83 9.9 49.9 39 -3.2 26.2
19:15 1012 29.88 841 24.83 9.8 49.6 40 -3.2 26.3
19:20 1011 29.85 840 24.81 9.7 49.4 41 -3 26.6
19:25 1011 29.85 841 24.83 9.5 49.1 41 -3.2 26.2
19:30 1011 29.85 840 24.81 9.4 49 41 -3.2 26.2
19:35 1011 29.85 840 24.81 9.4 48.9 41 -3.2 26.3
19:40 1011 29.85 840 24.81 9.3 48.7 41 -3.1 26.4
19:45 1011 29.85 840 24.81 9.1 48.5 42 -3 26.6
19:50 1011 29.85 840 24.81 9.1 48.3 42 -3 26.6
19:55 1011 29.85 840 24.81 9 48.2 43 -2.9 26.8
20:00 1011 29.85 840 24.81 8.9 48 44 -2.7 27.2
20:05 1011 29.85 840 24.81 8.8 47.8 45 -2.6 27.4
20:10 1011 29.85 840 24.81 8.7 47.7 45 -2.6 27.4
20:15 1011 29.85 840 24.81 8.7 47.7 46 -2.2 28
20:20 1011 29.85 840 24.81 8.6 47.5 47 -2.1 28.3
20:25 1011 29.85 840 24.81 8.5 47.4 48 -1.7 29
20:30 1011 29.85 840 24.81 8.4 47.1 50 -1.5 29.3
20:35 1011 29.85 840 24.81 8.4 47 51 -1.2 29.9
20:40 1010 29.83 840 24.81 8.3 47 52 -1 30.2
20:45 1011 29.85 840 24.81 8.3 47 53 -0.7 30.7
20:50 1010 29.83 840 24.81 8.2 46.8 54 -0.5 31
20:55 1011 29.85 840 24.81 8.1 46.6 55 -0.4 31.2
21:00 1010 29.83 840 24.81 8.1 46.6 55 -0.3 31.4
21:05 1010 29.83 840 24.81 8.1 46.5 55 -0.4 31.4
21:10 1011 29.85 840 24.81 8 46.5 56 -0.2 31.6
21:15 1010 29.83 840 24.81 8 46.4 56 -0.2 31.7
21:20 1011 29.85 840 24.81 8 46.3 57 -0.1 31.8
21:25 1010 29.83 840 24.81 7.9 46.1 57 -0.1 31.8
21:30 1010 29.83 840 24.81 7.9 46.1 57 -0 31.9
21:35 1010 29.83 840 24.81 7.8 46 58 0.1 32.2
21:40 1010 29.83 839 24.78 7.7 45.8 59 0.2 32.3
21:45 1010 29.83 839 24.78 7.6 45.7 59 0.3 32.5
21:50 1010 29.83 839 24.78 7.6 45.6 60 0.3 32.6
21:55 1010 29.83 839 24.78 7.5 45.5 60 0.4 32.7
22:00 1010 29.83 839 24.78 7.5 45.6 61 0.5 32.9
22:05 1010 29.83 839 24.78 7.5 45.4 62 0.6 33.1
22:10 1010 29.83 839 24.78 7.5 45.4 62 0.8 33.4
22:15 1010 29.83 839 24.78 7.4 45.3 63 0.9 33.6
22:20 1010 29.83 839 24.78 7.4 45.3 64 1 33.7
22:25 1010 29.83 839 24.78 7.4 45.3 64 1 33.9
22:30 1009 29.8 839 24.78 7.4 45.2 64 1.1 34
22:35 1010 29.83 839 24.78 7.3 45.1 65 1.1 34
22:40 1009 29.8 839 24.78 7.3 45.1 64 1 33.7
22:45 1010 29.83 839 24.78 7.2 45 63 0.6 33.1
22:50 1009 29.8 839 24.78 7.2 44.9 62 0.5 32.8
22:55 1009 29.8 839 24.78 7.1 44.8 61 0.1 32.3
23:00 1009 29.8 839 24.78 7.1 44.7 61 -0 32
23:05 1009 29.8 838 24.75 7 44.6 59 -0.3 31.4
23:10 1009 29.8 838 24.75 6.9 44.5 59 -0.5 31.1
23:15 1009 29.8 838 24.75 6.9 44.5 59 -0.6 30.9
23:20 1009 29.8 838 24.75 6.8 44.3 58 -0.7 30.7
23:25 1009 29.8 838 24.75 6.8 44.3 57 -1 30.3
23:30 1008 29.77 838 24.75 6.8 44.2 56 -1.3 29.7
23:35 1009 29.8 838 24.75 6.8 44.2 56 -1.4 29.5
23:40 1008 29.77 837 24.72 6.7 44.1 56 -1.5 29.2
23:45 1008 29.77 837 24.72 6.6 43.9 56 -1.5 29.4
23:50 1008 29.77 837 24.72 6.6 43.9 56 -1.5 29.2
23:55 1008 29.77 837 24.72 6.5 43.7 55 -1.9 28.6
24:00 1008 29.77 837 24.72 6.2 43.2 55 -2.2 28.1